Weather at Banjul International Airport

Public forecast

Using degrees Celsius for public forecast. Weather courtesy of forecast.io.

Current aviation weather report (METAR) for Banjul International Airport

Retrieved 2021/01/22 08:00 UTC (53 minutes ago):

GBYD 220800Z 03004KT 9000 NSC 21/07 Q1012

Aviation forecast (TAF) for Banjul International Airport

Retrieved 2021/01/22 06:00 UTC (3 hours ago):

TAF GBYD 220501Z 2106/2212 02008KT 8000 NSC